sensor_id;sensor_type;location;lat;lon;timestamp;P1;durP1;ratioP1;P2;durP2;ratioP2
24547;SDS011;12713;51.624;4.924;2023-07-13T00:01:23;7.90;;;2.38;;
24547;SDS011;12713;51.624;4.924;2023-07-13T00:06:39;3.55;;;1.60;;
24547;SDS011;12713;51.624;4.924;2023-07-13T00:09:05;5.95;;;1.88;;
24547;SDS011;12713;51.624;4.924;2023-07-13T00:11:34;8.45;;;2.10;;
24547;SDS011;12713;51.624;4.924;2023-07-13T00:14:03;7.95;;;2.20;;
24547;SDS011;12713;51.624;4.924;2023-07-13T00:16:40;6.97;;;1.98;;
24547;SDS011;12713;51.624;4.924;2023-07-13T00:19:25;8.75;;;2.47;;
24547;SDS011;12713;51.624;4.924;2023-07-13T00:21:54;4.80;;;2.23;;
24547;SDS011;12713;51.624;4.924;2023-07-13T00:24:20;13.93;;;2.20;;
24547;SDS011;12713;51.624;4.924;2023-07-13T00:26:52;5.88;;;2.22;;
24547;SDS011;12713;51.624;4.924;2023-07-13T00:29:29;5.25;;;1.80;;
24547;SDS011;12713;51.624;4.924;2023-07-13T00:31:55;4.70;;;2.38;;
24547;SDS011;12713;51.624;4.924;2023-07-13T00:34:24;7.13;;;2.22;;
24547;SDS011;12713;51.624;4.924;2023-07-13T00:36:55;7.05;;;2.22;;
24547;SDS011;12713;51.624;4.924;2023-07-13T00:39:21;7.45;;;2.00;;
24547;SDS011;12713;51.624;4.924;2023-07-13T00:41:55;9.10;;;2.53;;
24547;SDS011;12713;51.624;4.924;2023-07-13T00:44:29;10.30;;;2.95;;
24547;SDS011;12713;51.624;4.924;2023-07-13T00:47:16;11.90;;;3.40;;
24547;SDS011;12713;51.624;4.924;2023-07-13T00:49:45;8.60;;;2.47;;
24547;SDS011;12713;51.624;4.924;2023-07-13T00:55:03;17.42;;;3.28;;
24547;SDS011;12713;51.624;4.924;2023-07-13T00:57:29;8.52;;;2.08;;
24547;SDS011;12713;51.624;4.924;2023-07-13T00:59:57;15.98;;;3.20;;
24547;SDS011;12713;51.624;4.924;2023-07-13T01:02:44;7.45;;;2.65;;
24547;SDS011;12713;51.624;4.924;2023-07-13T01:05:21;9.73;;;2.72;;
24547;SDS011;12713;51.624;4.924;2023-07-13T01:07:55;7.35;;;2.75;;
24547;SDS011;12713;51.624;4.924;2023-07-13T01:10:22;11.10;;;3.00;;
24547;SDS011;12713;51.624;4.924;2023-07-13T01:12:48;10.35;;;2.40;;
24547;SDS011;12713;51.624;4.924;2023-07-13T01:18:02;13.90;;;3.00;;
24547;SDS011;12713;51.624;4.924;2023-07-13T01:20:28;12.65;;;3.00;;
24547;SDS011;12713;51.624;4.924;2023-07-13T01:23:07;7.07;;;3.15;;
24547;SDS011;12713;51.624;4.924;2023-07-13T01:25:34;11.68;;;3.05;;
24547;SDS011;12713;51.624;4.924;2023-07-13T01:28:07;8.57;;;2.83;;
24547;SDS011;12713;51.624;4.924;2023-07-13T01:30:37;8.38;;;2.30;;
24547;SDS011;12713;51.624;4.924;2023-07-13T01:33:17;9.63;;;3.22;;
24547;SDS011;12713;51.624;4.924;2023-07-13T01:35:46;13.73;;;3.63;;
24547;SDS011;12713;51.624;4.924;2023-07-13T01:38:15;9.15;;;2.95;;
24547;SDS011;12713;51.624;4.924;2023-07-13T01:40:42;9.63;;;3.00;;
24547;SDS011;12713;51.624;4.924;2023-07-13T01:43:11;17.50;;;4.28;;
24547;SDS011;12713;51.624;4.924;2023-07-13T01:45:40;13.82;;;3.35;;
24547;SDS011;12713;51.624;4.924;2023-07-13T01:48:14;9.00;;;3.25;;
24547;SDS011;12713;51.624;4.924;2023-07-13T01:50:43;14.33;;;4.33;;
24547;SDS011;12713;51.624;4.924;2023-07-13T01:53:14;12.70;;;4.55;;
24547;SDS011;12713;51.624;4.924;2023-07-13T01:56:28;14.35;;;3.85;;
24547;SDS011;12713;51.624;4.924;2023-07-13T01:58:44;15.93;;;4.03;;
24547;SDS011;12713;51.624;4.924;2023-07-13T02:07:20;11.73;;;4.25;;
24547;SDS011;12713;51.624;4.924;2023-07-13T02:09:46;13.05;;;3.50;;
24547;SDS011;12713;51.624;4.924;2023-07-13T02:12:12;9.25;;;2.90;;
24547;SDS011;12713;51.624;4.924;2023-07-13T02:14:41;14.18;;;3.50;;
24547;SDS011;12713;51.624;4.924;2023-07-13T02:17:13;16.58;;;4.80;;
24547;SDS011;12713;51.624;4.924;2023-07-13T02:19:42;16.37;;;4.10;;
24547;SDS011;12713;51.624;4.924;2023-07-13T02:22:09;16.45;;;4.53;;
24547;SDS011;12713;51.624;4.924;2023-07-13T02:24:35;15.95;;;4.28;;
24547;SDS011;12713;51.624;4.924;2023-07-13T02:27:03;11.98;;;4.47;;
24547;SDS011;12713;51.624;4.924;2023-07-13T02:29:34;9.57;;;3.42;;
24547;SDS011;12713;51.624;4.924;2023-07-13T02:32:00;13.40;;;4.60;;
24547;SDS011;12713;51.624;4.924;2023-07-13T02:34:38;17.35;;;4.80;;
24547;SDS011;12713;51.624;4.924;2023-07-13T02:37:09;11.95;;;4.25;;
24547;SDS011;12713;51.624;4.924;2023-07-13T02:39:38;12.70;;;4.70;;
24547;SDS011;12713;51.624;4.924;2023-07-13T02:44:52;15.43;;;5.10;;
24547;SDS011;12713;51.624;4.924;2023-07-13T02:47:18;15.13;;;5.30;;
24547;SDS011;12713;51.624;4.924;2023-07-13T02:49:47;21.75;;;5.47;;
24547;SDS011;12713;51.624;4.924;2023-07-13T02:52:17;21.13;;;4.40;;
24547;SDS011;12713;51.624;4.924;2023-07-13T02:54:49;19.10;;;4.45;;
24547;SDS011;12713;51.624;4.924;2023-07-13T02:57:17;16.95;;;5.32;;
24547;SDS011;12713;51.624;4.924;2023-07-13T02:59:49;16.50;;;5.25;;
24547;SDS011;12713;51.624;4.924;2023-07-13T03:02:17;20.55;;;5.35;;
24547;SDS011;12713;51.624;4.924;2023-07-13T03:04:49;15.50;;;4.57;;
24547;SDS011;12713;51.624;4.924;2023-07-13T03:07:15;17.98;;;5.40;;
24547;SDS011;12713;51.624;4.924;2023-07-13T03:09:41;15.57;;;5.80;;
24547;SDS011;12713;51.624;4.924;2023-07-13T03:12:11;18.70;;;5.68;;
24547;SDS011;12713;51.624;4.924;2023-07-13T03:14:57;16.23;;;5.65;;
24547;SDS011;12713;51.624;4.924;2023-07-13T03:17:31;21.45;;;5.93;;
24547;SDS011;12713;51.624;4.924;2023-07-13T03:20:20;20.30;;;5.97;;
24547;SDS011;12713;51.624;4.924;2023-07-13T03:22:56;16.42;;;5.55;;
24547;SDS011;12713;51.624;4.924;2023-07-13T03:25:29;21.23;;;6.47;;
24547;SDS011;12713;51.624;4.924;2023-07-13T03:27:55;22.70;;;6.67;;
24547;SDS011;12713;51.624;4.924;2023-07-13T03:30:21;18.88;;;5.57;;
24547;SDS011;12713;51.624;4.924;2023-07-13T03:32:47;16.20;;;6.63;;
24547;SDS011;12713;51.624;4.924;2023-07-13T03:35:13;18.40;;;6.45;;
24547;SDS011;12713;51.624;4.924;2023-07-13T03:37:45;18.50;;;6.57;;
24547;SDS011;12713;51.624;4.924;2023-07-13T03:40:11;22.15;;;7.63;;
24547;SDS011;12713;51.624;4.924;2023-07-13T03:42:43;19.42;;;7.07;;
24547;SDS011;12713;51.624;4.924;2023-07-13T03:45:29;21.70;;;7.57;;
24547;SDS011;12713;51.624;4.924;2023-07-13T03:47:58;17.58;;;5.78;;
24547;SDS011;12713;51.624;4.924;2023-07-13T03:50:30;18.83;;;6.05;;
24547;SDS011;12713;51.624;4.924;2023-07-13T03:52:58;16.50;;;5.93;;
24547;SDS011;12713;51.624;4.924;2023-07-13T03:55:27;18.65;;;6.68;;
24547;SDS011;12713;51.624;4.924;2023-07-13T03:58:00;22.40;;;8.63;;
24547;SDS011;12713;51.624;4.924;2023-07-13T04:00:38;24.73;;;7.70;;
24547;SDS011;12713;51.624;4.924;2023-07-13T04:03:04;21.50;;;7.32;;
24547;SDS011;12713;51.624;4.924;2023-07-13T04:05:39;25.55;;;8.95;;
24547;SDS011;12713;51.624;4.924;2023-07-13T04:08:11;22.03;;;7.67;;
24547;SDS011;12713;51.624;4.924;2023-07-13T04:10:49;20.65;;;7.95;;
24547;SDS011;12713;51.624;4.924;2023-07-13T04:13:15;20.45;;;8.32;;
24547;SDS011;12713;51.624;4.924;2023-07-13T04:15:42;26.25;;;9.02;;
24547;SDS011;12713;51.624;4.924;2023-07-13T04:18:11;22.92;;;9.75;;
24547;SDS011;12713;51.624;4.924;2023-07-13T04:20:37;34.53;;;9.80;;
24547;SDS011;12713;51.624;4.924;2023-07-13T04:23:09;24.95;;;9.90;;
24547;SDS011;12713;51.624;4.924;2023-07-13T04:31:30;29.92;;;11.25;;
24547;SDS011;12713;51.624;4.924;2023-07-13T04:34:00;21.60;;;10.57;;
24547;SDS011;12713;51.624;4.924;2023-07-13T04:36:28;28.60;;;11.80;;
24547;SDS011;12713;51.624;4.924;2023-07-13T04:38:54;28.10;;;10.20;;
24547;SDS011;12713;51.624;4.924;2023-07-13T04:41:23;25.60;;;10.60;;
24547;SDS011;12713;51.624;4.924;2023-07-13T04:44:06;28.55;;;11.82;;
24547;SDS011;12713;51.624;4.924;2023-07-13T04:46:52;23.30;;;12.00;;
24547;SDS011;12713;51.624;4.924;2023-07-13T04:49:30;32.88;;;13.25;;
24547;SDS011;12713;51.624;4.924;2023-07-13T04:52:00;30.30;;;11.40;;
24547;SDS011;12713;51.624;4.924;2023-07-13T04:54:34;34.20;;;13.18;;
24547;SDS011;12713;51.624;4.924;2023-07-13T04:57:02;28.58;;;12.65;;
24547;SDS011;12713;51.624;4.924;2023-07-13T04:59:57;31.05;;;12.68;;
24547;SDS011;12713;51.624;4.924;2023-07-13T05:05:28;29.73;;;11.93;;
24547;SDS011;12713;51.624;4.924;2023-07-13T05:08:01;26.88;;;11.35;;
24547;SDS011;12713;51.624;4.924;2023-07-13T05:10:32;33.20;;;11.70;;
24547;SDS011;12713;51.624;4.924;2023-07-13T05:12:58;18.52;;;8.48;;
24547;SDS011;12713;51.624;4.924;2023-07-13T05:15:36;27.13;;;12.68;;
24547;SDS011;12713;51.624;4.924;2023-07-13T05:18:02;25.77;;;11.80;;
24547;SDS011;12713;51.624;4.924;2023-07-13T05:26:25;30.73;;;12.93;;
24547;SDS011;12713;51.624;4.924;2023-07-13T05:29:17;35.47;;;14.23;;
24547;SDS011;12713;51.624;4.924;2023-07-13T05:31:47;33.67;;;13.60;;
24547;SDS011;12713;51.624;4.924;2023-07-13T05:34:23;35.85;;;14.85;;
24547;SDS011;12713;51.624;4.924;2023-07-13T05:36:50;34.00;;;14.73;;
24547;SDS011;12713;51.624;4.924;2023-07-13T05:39:22;33.70;;;15.05;;
24547;SDS011;12713;51.624;4.924;2023-07-13T05:41:58;36.07;;;15.63;;
24547;SDS011;12713;51.624;4.924;2023-07-13T05:44:27;31.63;;;15.38;;
24547;SDS011;12713;51.624;4.924;2023-07-13T05:46:55;32.35;;;14.60;;
24547;SDS011;12713;51.624;4.924;2023-07-13T05:49:26;35.33;;;15.63;;
24547;SDS011;12713;51.624;4.924;2023-07-13T05:51:52;33.33;;;15.38;;
24547;SDS011;12713;51.624;4.924;2023-07-13T05:54:26;30.83;;;15.10;;
24547;SDS011;12713;51.624;4.924;2023-07-13T05:56:57;35.55;;;15.93;;
24547;SDS011;12713;51.624;4.924;2023-07-13T05:59:29;39.40;;;16.88;;
24547;SDS011;12713;51.624;4.924;2023-07-13T06:01:55;30.90;;;15.00;;
24547;SDS011;12713;51.624;4.924;2023-07-13T06:04:30;30.65;;;16.00;;
24547;SDS011;12713;51.624;4.924;2023-07-13T06:06:59;38.03;;;17.80;;
24547;SDS011;12713;51.624;4.924;2023-07-13T06:09:48;33.38;;;17.00;;
24547;SDS011;12713;51.624;4.924;2023-07-13T06:12:22;32.92;;;17.17;;
24547;SDS011;12713;51.624;4.924;2023-07-13T06:17:51;38.72;;;17.20;;
24547;SDS011;12713;51.624;4.924;2023-07-13T06:20:17;32.35;;;17.15;;
24547;SDS011;12713;51.624;4.924;2023-07-13T06:22:54;30.17;;;15.80;;
24547;SDS011;12713;51.624;4.924;2023-07-13T06:25:23;34.05;;;16.80;;
24547;SDS011;12713;51.624;4.924;2023-07-13T06:27:55;33.13;;;17.27;;
24547;SDS011;12713;51.624;4.924;2023-07-13T06:30:23;35.45;;;16.85;;
24547;SDS011;12713;51.624;4.924;2023-07-13T06:32:49;29.10;;;16.00;;
24547;SDS011;12713;51.624;4.924;2023-07-13T06:35:44;26.98;;;16.10;;
24547;SDS011;12713;51.624;4.924;2023-07-13T06:38:10;29.45;;;15.40;;
24547;SDS011;12713;51.624;4.924;2023-07-13T06:40:45;41.20;;;15.73;;
24547;SDS011;12713;51.624;4.924;2023-07-13T06:43:30;36.50;;;16.27;;
24547;SDS011;12713;51.624;4.924;2023-07-13T06:45:57;28.30;;;15.98;;
24547;SDS011;12713;51.624;4.924;2023-07-13T06:48:33;33.97;;;17.10;;
24547;SDS011;12713;51.624;4.924;2023-07-13T06:51:02;32.47;;;15.32;;
24547;SDS011;12713;51.624;4.924;2023-07-13T06:53:54;34.72;;;14.70;;
24547;SDS011;12713;51.624;4.924;2023-07-13T06:56:43;34.95;;;13.40;;
24547;SDS011;12713;51.624;4.924;2023-07-13T06:59:22;37.10;;;15.35;;
24547;SDS011;12713;51.624;4.924;2023-07-13T07:01:50;28.05;;;14.82;;
24547;SDS011;12713;51.624;4.924;2023-07-13T07:04:19;32.22;;;14.23;;
24547;SDS011;12713;51.624;4.924;2023-07-13T07:06:45;26.58;;;13.63;;
24547;SDS011;12713;51.624;4.924;2023-07-13T07:09:17;25.48;;;13.82;;
24547;SDS011;12713;51.624;4.924;2023-07-13T07:17:22;21.67;;;10.73;;
24547;SDS011;12713;51.624;4.924;2023-07-13T07:19:52;21.55;;;10.57;;
24547;SDS011;12713;51.624;4.924;2023-07-13T07:22:45;18.40;;;9.48;;
24547;SDS011;12713;51.624;4.924;2023-07-13T07:25:15;27.98;;;12.00;;
24547;SDS011;12713;51.624;4.924;2023-07-13T07:27:44;25.02;;;11.25;;
24547;SDS011;12713;51.624;4.924;2023-07-13T07:33:06;19.75;;;9.80;;
24547;SDS011;12713;51.624;4.924;2023-07-13T07:35:32;25.80;;;9.65;;
24547;SDS011;12713;51.624;4.924;2023-07-13T07:38:14;23.27;;;10.98;;
24547;SDS011;12713;51.624;4.924;2023-07-13T07:41:00;20.77;;;9.57;;
24547;SDS011;12713;51.624;4.924;2023-07-13T07:43:32;21.70;;;9.80;;
24547;SDS011;12713;51.624;4.924;2023-07-13T07:46:01;19.02;;;8.57;;
24547;SDS011;12713;51.624;4.924;2023-07-13T07:48:35;15.93;;;6.97;;
24547;SDS011;12713;51.624;4.924;2023-07-13T07:51:26;13.27;;;6.38;;
24547;SDS011;12713;51.624;4.924;2023-07-13T07:54:04;20.38;;;7.10;;
24547;SDS011;12713;51.624;4.924;2023-07-13T07:56:33;14.27;;;6.13;;
24547;SDS011;12713;51.624;4.924;2023-07-13T07:59:05;17.50;;;5.70;;
24547;SDS011;12713;51.624;4.924;2023-07-13T08:01:34;16.67;;;5.83;;
24547;SDS011;12713;51.624;4.924;2023-07-13T08:04:01;13.23;;;4.70;;
24547;SDS011;12713;51.624;4.924;2023-07-13T08:06:31;8.98;;;4.28;;
24547;SDS011;12713;51.624;4.924;2023-07-13T08:09:01;12.60;;;5.10;;
24547;SDS011;12713;51.624;4.924;2023-07-13T08:11:29;13.43;;;5.18;;
24547;SDS011;12713;51.624;4.924;2023-07-13T08:13:57;11.45;;;4.75;;
24547;SDS011;12713;51.624;4.924;2023-07-13T08:16:33;12.20;;;5.07;;
24547;SDS011;12713;51.624;4.924;2023-07-13T08:18:59;8.20;;;3.95;;
24547;SDS011;12713;51.624;4.924;2023-07-13T08:21:34;16.40;;;4.18;;
24547;SDS011;12713;51.624;4.924;2023-07-13T08:24:13;15.55;;;4.95;;
24547;SDS011;12713;51.624;4.924;2023-07-13T08:26:39;12.95;;;3.53;;
24547;SDS011;12713;51.624;4.924;2023-07-13T08:29:06;14.30;;;4.60;;
24547;SDS011;12713;51.624;4.924;2023-07-13T08:31:32;16.55;;;4.65;;
24547;SDS011;12713;51.624;4.924;2023-07-13T08:36:56;11.63;;;4.32;;
24547;SDS011;12713;51.624;4.924;2023-07-13T08:39:29;15.55;;;4.78;;
24547;SDS011;12713;51.624;4.924;2023-07-13T08:50:10;10.27;;;4.00;;
24547;SDS011;12713;51.624;4.924;2023-07-13T08:52:49;10.02;;;3.75;;
24547;SDS011;12713;51.624;4.924;2023-07-13T08:58:23;10.18;;;3.30;;
24547;SDS011;12713;51.624;4.924;2023-07-13T09:06:31;8.27;;;3.75;;
24547;SDS011;12713;51.624;4.924;2023-07-13T09:09:07;10.02;;;3.75;;
24547;SDS011;12713;51.624;4.924;2023-07-13T09:16:56;13.65;;;3.72;;
24547;SDS011;12713;51.624;4.924;2023-07-13T09:19:34;10.45;;;3.40;;
24547;SDS011;12713;51.624;4.924;2023-07-13T09:22:04;5.13;;;3.13;;
24547;SDS011;12713;51.624;4.924;2023-07-13T09:24:41;5.20;;;2.63;;
24547;SDS011;12713;51.624;4.924;2023-07-13T09:27:15;11.95;;;2.88;;
24547;SDS011;12713;51.624;4.924;2023-07-13T09:32:26;7.88;;;2.60;;
24547;SDS011;12713;51.624;4.924;2023-07-13T09:35:09;8.43;;;3.20;;
24547;SDS011;12713;51.624;4.924;2023-07-13T09:37:36;8.35;;;3.08;;
24547;SDS011;12713;51.624;4.924;2023-07-13T09:40:08;8.38;;;3.20;;
24547;SDS011;12713;51.624;4.924;2023-07-13T09:42:36;12.50;;;3.58;;
24547;SDS011;12713;51.624;4.924;2023-07-13T09:45:26;11.95;;;3.65;;
24547;SDS011;12713;51.624;4.924;2023-07-13T09:48:03;11.40;;;3.95;;
24547;SDS011;12713;51.624;4.924;2023-07-13T09:50:39;8.95;;;2.58;;
24547;SDS011;12713;51.624;4.924;2023-07-13T09:53:11;16.65;;;3.03;;
24547;SDS011;12713;51.624;4.924;2023-07-13T09:55:41;9.90;;;3.10;;
24547;SDS011;12713;51.624;4.924;2023-07-13T09:58:15;9.98;;;2.88;;
24547;SDS011;12713;51.624;4.924;2023-07-13T10:01:01;17.38;;;3.53;;
24547;SDS011;12713;51.624;4.924;2023-07-13T10:03:34;10.73;;;2.88;;
24547;SDS011;12713;51.624;4.924;2023-07-13T10:06:14;9.25;;;3.00;;
24547;SDS011;12713;51.624;4.924;2023-07-13T10:08:47;12.15;;;2.85;;
24547;SDS011;12713;51.624;4.924;2023-07-13T10:14:02;9.02;;;2.90;;
24547;SDS011;12713;51.624;4.924;2023-07-13T10:16:47;8.98;;;2.75;;
24547;SDS011;12713;51.624;4.924;2023-07-13T10:25:29;8.95;;;2.53;;
24547;SDS011;12713;51.624;4.924;2023-07-13T10:31:12;6.93;;;3.28;;
24547;SDS011;12713;51.624;4.924;2023-07-13T10:34:02;15.40;;;5.32;;
24547;SDS011;12713;51.624;4.924;2023-07-13T10:36:33;18.30;;;5.10;;
24547;SDS011;12713;51.624;4.924;2023-07-13T10:39:01;12.18;;;4.43;;
24547;SDS011;12713;51.624;4.924;2023-07-13T10:41:28;8.63;;;4.05;;
24547;SDS011;12713;51.624;4.924;2023-07-13T10:43:58;11.77;;;4.95;;
24547;SDS011;12713;51.624;4.924;2023-07-13T10:46:28;7.18;;;3.08;;
24547;SDS011;12713;51.624;4.924;2023-07-13T10:48:58;6.82;;;2.30;;
24547;SDS011;12713;51.624;4.924;2023-07-13T10:51:25;4.20;;;2.30;;
24547;SDS011;12713;51.624;4.924;2023-07-13T10:56:42;9.50;;;2.78;;
24547;SDS011;12713;51.624;4.924;2023-07-13T10:59:14;6.55;;;2.58;;
24547;SDS011;12713;51.624;4.924;2023-07-13T11:01:52;6.10;;;2.88;;
24547;SDS011;12713;51.624;4.924;2023-07-13T11:04:25;5.35;;;2.95;;
24547;SDS011;12713;51.624;4.924;2023-07-13T12:17:37;5.78;;;2.30;;
24547;SDS011;12713;51.624;4.924;2023-07-13T12:22:51;6.82;;;2.20;;
24547;SDS011;12713;51.624;4.924;2023-07-13T12:25:18;5.45;;;2.53;;
24547;SDS011;12713;51.624;4.924;2023-07-13T12:27:52;6.07;;;2.20;;
24547;SDS011;12713;51.624;4.924;2023-07-13T12:30:23;3.47;;;1.83;;
24547;SDS011;12713;51.624;4.924;2023-07-13T12:47:52;4.68;;;2.03;;
24547;SDS011;12713;51.624;4.924;2023-07-13T12:50:20;3.83;;;1.98;;
24547;SDS011;12713;51.624;4.924;2023-07-13T12:52:51;4.95;;;2.00;;
24547;SDS011;12713;51.624;4.924;2023-07-13T12:55:24;5.20;;;2.35;;
24547;SDS011;12713;51.624;4.924;2023-07-13T12:57:51;7.53;;;2.58;;
24547;SDS011;12713;51.624;4.924;2023-07-13T13:00:26;6.25;;;2.53;;
24547;SDS011;12713;51.624;4.924;2023-07-13T13:02:56;5.88;;;2.58;;
24547;SDS011;12713;51.624;4.924;2023-07-13T13:05:26;5.82;;;2.38;;
24547;SDS011;12713;51.624;4.924;2023-07-13T13:07:52;10.30;;;2.40;;
24547;SDS011;12713;51.624;4.924;2023-07-13T13:10:18;7.07;;;2.40;;
24547;SDS011;12713;51.624;4.924;2023-07-13T13:12:46;6.80;;;2.85;;
24547;SDS011;12713;51.624;4.924;2023-07-13T13:15:12;5.22;;;2.60;;
24547;SDS011;12713;51.624;4.924;2023-07-13T13:17:59;5.22;;;2.55;;
24547;SDS011;12713;51.624;4.924;2023-07-13T13:20:28;8.43;;;4.25;;
24547;SDS011;12713;51.624;4.924;2023-07-13T13:22:54;4.45;;;2.47;;
24547;SDS011;12713;51.624;4.924;2023-07-13T13:25:32;4.55;;;2.60;;
24547;SDS011;12713;51.624;4.924;2023-07-13T13:28:30;5.40;;;2.13;;
24547;SDS011;12713;51.624;4.924;2023-07-13T13:31:02;4.40;;;2.15;;
24547;SDS011;12713;51.624;4.924;2023-07-13T13:33:31;5.07;;;2.20;;
24547;SDS011;12713;51.624;4.924;2023-07-13T13:35:57;4.85;;;2.15;;
24547;SDS011;12713;51.624;4.924;2023-07-13T13:38:31;5.25;;;2.47;;
24547;SDS011;12713;51.624;4.924;2023-07-13T13:41:00;5.03;;;2.70;;
24547;SDS011;12713;51.624;4.924;2023-07-13T13:46:32;6.80;;;2.95;;
24547;SDS011;12713;51.624;4.924;2023-07-13T13:49:01;5.88;;;2.50;;
24547;SDS011;12713;51.624;4.924;2023-07-13T13:51:27;4.90;;;2.55;;
24547;SDS011;12713;51.624;4.924;2023-07-13T13:53:54;6.30;;;2.58;;
24547;SDS011;12713;51.624;4.924;2023-07-13T13:59:27;6.00;;;2.88;;
24547;SDS011;12713;51.624;4.924;2023-07-13T14:02:07;5.43;;;2.30;;
24547;SDS011;12713;51.624;4.924;2023-07-13T14:07:38;7.55;;;2.50;;
24547;SDS011;12713;51.624;4.924;2023-07-13T14:10:10;5.47;;;2.17;;
24547;SDS011;12713;51.624;4.924;2023-07-13T14:15:30;7.43;;;2.55;;
24547;SDS011;12713;51.624;4.924;2023-07-13T14:18:34;6.82;;;3.10;;
24547;SDS011;12713;51.624;4.924;2023-07-13T14:21:24;3.55;;;1.90;;
24547;SDS011;12713;51.624;4.924;2023-07-13T14:27:00;4.68;;;2.33;;
24547;SDS011;12713;51.624;4.924;2023-07-13T14:35:55;3.38;;;1.90;;
24547;SDS011;12713;51.624;4.924;2023-07-13T14:38:27;3.92;;;2.03;;
24547;SDS011;12713;51.624;4.924;2023-07-13T14:40:53;4.32;;;1.70;;
24547;SDS011;12713;51.624;4.924;2023-07-13T14:43:20;4.70;;;2.20;;
24547;SDS011;12713;51.624;4.924;2023-07-13T14:46:03;4.22;;;1.70;;
24547;SDS011;12713;51.624;4.924;2023-07-13T14:48:39;3.50;;;1.63;;
24547;SDS011;12713;51.624;4.924;2023-07-13T14:51:07;4.22;;;2.03;;
24547;SDS011;12713;51.624;4.924;2023-07-13T15:32:13;3.70;;;1.67;;
24547;SDS011;12713;51.624;4.924;2023-07-13T15:34:52;4.93;;;1.85;;
24547;SDS011;12713;51.624;4.924;2023-07-13T16:44:23;4.03;;;1.80;;
24547;SDS011;12713;51.624;4.924;2023-07-13T16:47:01;6.47;;;1.85;;
24547;SDS011;12713;51.624;4.924;2023-07-13T16:52:54;6.75;;;1.90;;
24547;SDS011;12713;51.624;4.924;2023-07-13T16:55:22;4.85;;;2.00;;
24547;SDS011;12713;51.624;4.924;2023-07-13T16:57:55;3.85;;;1.63;;
24547;SDS011;12713;51.624;4.924;2023-07-13T17:00:30;2.42;;;1.67;;
24547;SDS011;12713;51.624;4.924;2023-07-13T17:03:00;3.05;;;1.63;;
24547;SDS011;12713;51.624;4.924;2023-07-13T17:05:30;6.15;;;1.83;;
24547;SDS011;12713;51.624;4.924;2023-07-13T17:07:57;3.90;;;1.98;;
24547;SDS011;12713;51.624;4.924;2023-07-13T17:10:42;4.95;;;1.60;;
24547;SDS011;12713;51.624;4.924;2023-07-13T17:13:15;3.55;;;1.83;;
24547;SDS011;12713;51.624;4.924;2023-07-13T17:15:59;3.80;;;1.65;;
24547;SDS011;12713;51.624;4.924;2023-07-13T17:18:45;3.22;;;1.73;;
24547;SDS011;12713;51.624;4.924;2023-07-13T17:21:15;3.95;;;1.63;;
24547;SDS011;12713;51.624;4.924;2023-07-13T17:23:46;5.30;;;1.80;;
24547;SDS011;12713;51.624;4.924;2023-07-13T17:26:17;6.25;;;1.90;;
24547;SDS011;12713;51.624;4.924;2023-07-13T17:28:43;6.38;;;1.75;;
24547;SDS011;12713;51.624;4.924;2023-07-13T17:31:17;7.13;;;1.80;;
24547;SDS011;12713;51.624;4.924;2023-07-13T17:33:44;5.45;;;1.98;;
24547;SDS011;12713;51.624;4.924;2023-07-13T17:36:14;3.83;;;1.88;;
24547;SDS011;12713;51.624;4.924;2023-07-13T17:38:42;6.25;;;1.70;;
24547;SDS011;12713;51.624;4.924;2023-07-13T17:41:24;3.38;;;2.05;;
24547;SDS011;12713;51.624;4.924;2023-07-13T17:43:57;6.05;;;1.83;;
24547;SDS011;12713;51.624;4.924;2023-07-13T17:46:36;4.63;;;1.80;;
24547;SDS011;12713;51.624;4.924;2023-07-13T17:49:02;6.70;;;2.28;;
24547;SDS011;12713;51.624;4.924;2023-07-13T17:54:11;3.85;;;1.77;;
24547;SDS011;12713;51.624;4.924;2023-07-13T17:56:41;4.45;;;1.80;;
24547;SDS011;12713;51.624;4.924;2023-07-13T17:59:14;2.45;;;1.52;;
24547;SDS011;12713;51.624;4.924;2023-07-13T18:04:44;3.55;;;1.98;;
24547;SDS011;12713;51.624;4.924;2023-07-13T18:07:33;3.90;;;1.77;;
24547;SDS011;12713;51.624;4.924;2023-07-13T18:10:20;4.65;;;1.50;;
24547;SDS011;12713;51.624;4.924;2023-07-13T18:12:52;4.63;;;1.77;;
24547;SDS011;12713;51.624;4.924;2023-07-13T18:15:30;2.50;;;1.52;;
24547;SDS011;12713;51.624;4.924;2023-07-13T18:18:35;2.28;;;1.30;;
24547;SDS011;12713;51.624;4.924;2023-07-13T18:21:10;3.53;;;1.55;;
24547;SDS011;12713;51.624;4.924;2023-07-13T18:26:51;4.50;;;1.40;;
24547;SDS011;12713;51.624;4.924;2023-07-13T18:29:22;3.88;;;1.58;;
24547;SDS011;12713;51.624;4.924;2023-07-13T18:31:49;3.08;;;1.50;;
24547;SDS011;12713;51.624;4.924;2023-07-13T18:34:23;3.17;;;1.25;;
24547;SDS011;12713;51.624;4.924;2023-07-13T18:36:58;5.53;;;1.33;;
24547;SDS011;12713;51.624;4.924;2023-07-13T18:39:27;3.88;;;1.40;;
24547;SDS011;12713;51.624;4.924;2023-07-13T18:42:06;4.70;;;1.67;;
24547;SDS011;12713;51.624;4.924;2023-07-13T18:44:54;3.72;;;1.45;;
24547;SDS011;12713;51.624;4.924;2023-07-13T18:47:21;3.20;;;1.55;;
24547;SDS011;12713;51.624;4.924;2023-07-13T18:49:56;3.67;;;1.40;;
24547;SDS011;12713;51.624;4.924;2023-07-13T18:52:30;4.30;;;1.70;;
24547;SDS011;12713;51.624;4.924;2023-07-13T18:54:56;4.82;;;1.50;;
24547;SDS011;12713;51.624;4.924;2023-07-13T18:57:31;4.47;;;1.48;;
24547;SDS011;12713;51.624;4.924;2023-07-13T19:00:10;4.43;;;1.42;;
24547;SDS011;12713;51.624;4.924;2023-07-13T19:02:36;3.00;;;1.52;;
24547;SDS011;12713;51.624;4.924;2023-07-13T19:05:16;8.15;;;1.50;;
24547;SDS011;12713;51.624;4.924;2023-07-13T19:07:42;4.88;;;1.45;;
24547;SDS011;12713;51.624;4.924;2023-07-13T19:10:16;5.95;;;1.70;;
24547;SDS011;12713;51.624;4.924;2023-07-13T19:12:46;4.55;;;1.65;;
24547;SDS011;12713;51.624;4.924;2023-07-13T19:30:31;5.25;;;1.75;;
24547;SDS011;12713;51.624;4.924;2023-07-13T19:36:26;4.70;;;1.42;;
24547;SDS011;12713;51.624;4.924;2023-07-13T19:38:52;3.78;;;1.20;;
24547;SDS011;12713;51.624;4.924;2023-07-13T19:41:27;5.20;;;1.55;;
24547;SDS011;12713;51.624;4.924;2023-07-13T19:43:56;6.35;;;1.40;;
24547;SDS011;12713;51.624;4.924;2023-07-13T19:46:27;4.88;;;1.40;;
24547;SDS011;12713;51.624;4.924;2023-07-13T19:48:56;4.90;;;1.77;;
24547;SDS011;12713;51.624;4.924;2023-07-13T19:51:25;4.63;;;1.50;;
24547;SDS011;12713;51.624;4.924;2023-07-13T19:53:58;4.80;;;1.83;;
24547;SDS011;12713;51.624;4.924;2023-07-13T19:56:25;9.57;;;2.20;;
24547;SDS011;12713;51.624;4.924;2023-07-13T20:01:32;4.45;;;1.20;;
24547;SDS011;12713;51.624;4.924;2023-07-13T20:04:00;4.38;;;1.42;;
24547;SDS011;12713;51.624;4.924;2023-07-13T20:06:31;4.43;;;1.63;;
24547;SDS011;12713;51.624;4.924;2023-07-13T20:09:05;3.55;;;1.45;;
24547;SDS011;12713;51.624;4.924;2023-07-13T20:11:40;3.50;;;1.48;;
24547;SDS011;12713;51.624;4.924;2023-07-13T20:14:22;3.42;;;1.77;;
24547;SDS011;12713;51.624;4.924;2023-07-13T20:16:48;4.65;;;1.58;;
24547;SDS011;12713;51.624;4.924;2023-07-13T20:19:25;4.40;;;1.73;;
24547;SDS011;12713;51.624;4.924;2023-07-13T20:21:52;3.30;;;1.55;;
24547;SDS011;12713;51.624;4.924;2023-07-13T20:24:19;2.75;;;1.48;;
24547;SDS011;12713;51.624;4.924;2023-07-13T20:26:50;3.65;;;1.20;;
24547;SDS011;12713;51.624;4.924;2023-07-13T20:29:16;4.00;;;1.60;;
24547;SDS011;12713;51.624;4.924;2023-07-13T20:31:46;5.50;;;1.77;;
24547;SDS011;12713;51.624;4.924;2023-07-13T20:34:18;4.47;;;1.65;;
24547;SDS011;12713;51.624;4.924;2023-07-13T20:36:45;4.03;;;1.83;;
24547;SDS011;12713;51.624;4.924;2023-07-13T20:39:11;5.85;;;2.30;;
24547;SDS011;12713;51.624;4.924;2023-07-13T20:41:40;5.22;;;1.40;;
24547;SDS011;12713;51.624;4.924;2023-07-13T20:44:06;4.65;;;1.55;;